createdAt,value
2017-11-06T00:02:22.675Z,4.50
2017-11-06T00:04:50.270Z,4.50
2017-11-06T00:07:17.839Z,4.50
2017-11-06T00:09:45.386Z,4.40
2017-11-06T00:12:12.967Z,4.40
2017-11-06T00:14:40.552Z,4.40
2017-11-06T00:17:08.128Z,4.30
2017-11-06T00:19:36.043Z,4.30
2017-11-06T00:22:03.637Z,4.30
2017-11-06T00:24:31.187Z,4.30
2017-11-06T00:26:58.750Z,4.30
2017-11-06T00:29:26.335Z,4.30
2017-11-06T00:31:53.944Z,4.40
2017-11-06T00:34:21.486Z,4.30
2017-11-06T00:36:49.101Z,4.30
2017-11-06T00:39:16.736Z,4.30
2017-11-06T00:41:45.076Z,4.30
2017-11-06T00:44:14.350Z,4.30
2017-11-06T00:46:41.923Z,4.30
2017-11-06T00:49:09.520Z,4.30
2017-11-06T00:51:38.153Z,4.40
2017-11-06T00:54:05.786Z,4.40
2017-11-06T00:56:33.469Z,4.40
2017-11-06T00:59:01.034Z,4.40
2017-11-06T01:01:28.606Z,4.30
2017-11-06T01:03:56.162Z,4.40
2017-11-06T01:06:23.741Z,4.40
2017-11-06T01:08:51.325Z,4.40
2017-11-06T01:11:18.893Z,4.40
2017-11-06T01:13:46.478Z,4.40
2017-11-06T01:16:14.069Z,4.30
2017-11-06T01:18:41.677Z,4.30
2017-11-06T01:21:10.018Z,4.30
2017-11-06T01:23:37.584Z,4.20
2017-11-06T01:26:05.788Z,4.30
2017-11-06T01:28:34.149Z,4.30
2017-11-06T01:31:01.693Z,4.40
2017-11-06T01:33:29.257Z,4.40
2017-11-06T01:35:56.854Z,4.40
2017-11-06T01:38:24.406Z,4.40
2017-11-06T01:40:51.981Z,4.50
2017-11-06T01:43:19.572Z,4.50
2017-11-06T01:45:47.899Z,4.60
2017-11-06T01:48:15.539Z,4.60
2017-11-06T01:50:43.137Z,4.70
2017-11-06T01:53:10.691Z,4.70
2017-11-06T01:55:38.337Z,4.60
2017-11-06T01:58:07.563Z,4.60
2017-11-06T02:00:35.978Z,4.60
2017-11-06T02:03:03.555Z,4.60
2017-11-06T02:05:31.746Z,4.50
2017-11-06T02:08:00.081Z,4.40
2017-11-06T02:10:27.648Z,4.40
2017-11-06T02:12:55.209Z,4.50
2017-11-06T02:15:22.810Z,4.40
2017-11-06T02:17:51.391Z,4.40
2017-11-06T02:20:19.004Z,4.50
2017-11-06T02:22:46.589Z,4.40
2017-11-06T02:25:14.219Z,4.40
2017-11-06T02:27:44.443Z,4.40
2017-11-06T02:30:12.029Z,4.40
2017-11-06T02:32:39.694Z,4.50
2017-11-06T02:35:07.281Z,4.50
2017-11-06T02:37:34.936Z,4.50
2017-11-06T02:40:02.525Z,4.40
2017-11-06T02:42:30.156Z,4.50
2017-11-06T02:44:57.707Z,4.50
2017-11-06T02:47:25.333Z,4.50
2017-11-06T02:49:53.936Z,4.50
2017-11-06T02:52:21.526Z,4.40
2017-11-06T02:54:49.158Z,4.40
2017-11-06T02:57:16.760Z,4.40
2017-11-06T02:59:44.331Z,4.50
2017-11-06T03:02:11.899Z,4.50
2017-11-06T03:04:39.494Z,4.50
2017-11-06T03:07:07.047Z,4.60
2017-11-06T03:09:34.641Z,4.60
2017-11-06T03:12:02.197Z,4.50
2017-11-06T03:14:29.799Z,4.50
2017-11-06T03:16:58.148Z,4.50
2017-11-06T03:19:25.756Z,4.50
2017-11-06T03:21:54.175Z,4.50
2017-11-06T03:24:21.995Z,4.50
2017-11-06T03:26:49.601Z,4.60
2017-11-06T03:29:17.188Z,4.50
2017-11-06T03:31:44.768Z,4.50
2017-11-06T03:34:12.366Z,4.50
2017-11-06T03:36:40.713Z,4.40
2017-11-06T03:39:08.342Z,4.40
2017-11-06T03:41:35.931Z,4.40
2017-11-06T03:44:03.588Z,4.40
2017-11-06T03:46:31.176Z,4.40
2017-11-06T03:48:58.734Z,4.40
2017-11-06T03:51:26.317Z,4.50
2017-11-06T03:53:53.905Z,4.50
2017-11-06T03:56:23.247Z,4.50
2017-11-06T03:58:50.834Z,4.50
2017-11-06T04:01:18.689Z,4.40
2017-11-06T04:03:46.313Z,4.40
2017-11-06T04:06:14.290Z,4.40
2017-11-06T04:08:42.695Z,4.40
2017-11-06T04:11:10.281Z,4.40
2017-11-06T04:13:37.922Z,4.30
2017-11-06T04:16:05.511Z,4.30
2017-11-06T04:18:33.892Z,4.30
2017-11-06T04:21:01.496Z,4.30
2017-11-06T04:23:30.101Z,4.30
2017-11-06T04:25:58.463Z,4.30
2017-11-06T04:28:26.054Z,4.30
2017-11-06T04:30:54.437Z,4.30
2017-11-06T04:33:22.049Z,4.20
2017-11-06T04:35:50.659Z,4.30
2017-11-06T04:38:18.254Z,4.20
2017-11-06T04:40:46.609Z,4.20
2017-11-06T04:43:16.083Z,4.20
2017-11-06T04:45:43.684Z,4.20
2017-11-06T04:48:11.274Z,4.30
2017-11-06T04:50:39.639Z,4.30
2017-11-06T04:53:07.241Z,4.30
2017-11-06T04:55:34.815Z,4.30
2017-11-06T04:58:02.380Z,4.30
2017-11-06T05:00:30.020Z,4.30
2017-11-06T05:02:58.345Z,4.30
2017-11-06T05:05:25.955Z,4.30
2017-11-06T05:07:54.300Z,4.30
2017-11-06T05:10:21.887Z,4.30
2017-11-06T05:12:49.480Z,4.30
2017-11-06T05:15:18.051Z,4.30
2017-11-06T05:17:46.437Z,4.30
2017-11-06T05:20:14.810Z,4.30
2017-11-06T05:22:42.427Z,4.30
2017-11-06T05:25:10.060Z,4.20
2017-11-06T05:27:38.474Z,4.20
2017-11-06T05:30:06.079Z,4.20
2017-11-06T05:32:33.638Z,4.10
2017-11-06T05:35:01.234Z,4.10
2017-11-06T05:37:28.811Z,4.10
2017-11-06T05:39:57.151Z,4.00
2017-11-06T05:42:24.773Z,4.00
2017-11-06T05:44:53.798Z,4.00
2017-11-06T05:47:23.349Z,4.00
2017-11-06T05:49:51.147Z,3.90
2017-11-06T05:52:18.799Z,3.90
2017-11-06T05:54:46.515Z,3.90
2017-11-06T05:57:15.099Z,3.90
2017-11-06T05:59:42.677Z,3.90
2017-11-06T06:02:10.237Z,3.90
2017-11-06T06:04:37.825Z,3.90
2017-11-06T06:07:05.415Z,3.90
2017-11-06T06:09:33.738Z,3.80
2017-11-06T06:12:01.467Z,3.80
2017-11-06T06:14:29.086Z,3.70
2017-11-06T06:16:56.661Z,3.70
2017-11-06T06:19:24.240Z,3.70
2017-11-06T06:21:51.805Z,3.60
2017-11-06T06:24:19.380Z,3.70
2017-11-06T06:26:47.743Z,3.70
2017-11-06T06:29:15.323Z,3.70
2017-11-06T06:31:42.884Z,3.70
2017-11-06T06:34:10.445Z,3.70
2017-11-06T06:36:38.008Z,3.60
2017-11-06T06:39:05.585Z,3.70
2017-11-06T06:41:33.163Z,3.70
2017-11-06T06:44:03.752Z,3.70
2017-11-06T06:46:31.437Z,3.80
2017-11-06T06:48:59.047Z,3.80
2017-11-06T06:51:26.611Z,3.80
2017-11-06T06:53:54.189Z,3.90
2017-11-06T06:56:21.773Z,4.00
2017-11-06T06:58:49.389Z,4.00
2017-11-06T07:01:16.968Z,4.00
2017-11-06T07:03:44.555Z,4.00
2017-11-06T07:06:12.195Z,4.00
2017-11-06T07:08:39.808Z,4.10
2017-11-06T07:11:07.408Z,4.10
2017-11-06T07:13:35.057Z,4.20
2017-11-06T07:16:02.664Z,4.30
2017-11-06T07:18:30.261Z,4.30
2017-11-06T07:20:57.829Z,4.30
2017-11-06T07:23:25.404Z,4.30
2017-11-06T07:25:52.974Z,4.20
2017-11-06T07:28:20.589Z,4.10
2017-11-06T07:30:48.169Z,4.10
2017-11-06T07:33:15.735Z,4.10
2017-11-06T07:35:43.333Z,4.00
2017-11-06T07:38:10.904Z,4.00
2017-11-06T07:40:38.515Z,3.90
2017-11-06T07:43:06.151Z,4.00
2017-11-06T07:45:33.732Z,4.00
2017-11-06T07:48:02.049Z,4.00
2017-11-06T07:50:29.631Z,4.00
2017-11-06T07:52:57.197Z,4.00
2017-11-06T07:55:24.754Z,4.00
2017-11-06T07:57:52.352Z,3.80
2017-11-06T08:00:19.916Z,3.80
2017-11-06T08:02:47.529Z,3.80
2017-11-06T08:05:15.095Z,3.90
2017-11-06T08:07:42.643Z,4.00
2017-11-06T08:10:10.234Z,4.00
2017-11-06T08:12:37.814Z,4.00
2017-11-06T08:15:05.401Z,4.00
2017-11-06T08:17:32.979Z,4.10
2017-11-06T08:20:00.594Z,4.20
2017-11-06T08:22:28.202Z,4.30
2017-11-06T08:24:55.815Z,4.20
2017-11-06T08:27:23.444Z,4.30
2017-11-06T08:29:51.819Z,4.50
2017-11-06T08:32:19.404Z,4.50
2017-11-06T08:34:47.774Z,4.60
2017-11-06T08:37:15.320Z,4.60
2017-11-06T08:39:42.925Z,4.60
2017-11-06T08:42:11.267Z,4.60
2017-11-06T08:44:38.847Z,4.60
2017-11-06T08:47:06.432Z,4.60
2017-11-06T08:49:34.781Z,4.60
2017-11-06T08:52:03.394Z,4.60
2017-11-06T08:54:30.931Z,4.60
2017-11-06T08:56:59.568Z,4.70
2017-11-06T08:59:27.177Z,4.80
2017-11-06T09:01:54.749Z,4.90
2017-11-06T09:04:22.316Z,4.80
2017-11-06T09:06:49.913Z,4.80
2017-11-06T09:09:17.569Z,4.80
2017-11-06T09:11:45.147Z,4.80
2017-11-06T09:14:12.807Z,4.80
2017-11-06T09:16:41.151Z,5.00
2017-11-06T09:19:08.769Z,5.00
2017-11-06T09:21:36.367Z,5.00
2017-11-06T09:24:03.945Z,4.90
2017-11-06T09:26:32.564Z,4.90
2017-11-06T09:29:00.177Z,5.00
2017-11-06T09:31:27.764Z,5.00
2017-11-06T09:33:55.359Z,5.10
2017-11-06T09:36:22.954Z,4.90
2017-11-06T09:38:51.296Z,4.70
2017-11-06T09:41:18.876Z,4.70
2017-11-06T09:43:47.229Z,4.70
2017-11-06T09:46:14.808Z,4.70
2017-11-06T09:48:42.353Z,4.70
2017-11-06T09:51:09.956Z,4.60
2017-11-06T09:53:37.519Z,4.50
2017-11-06T09:56:05.120Z,4.40
2017-11-06T09:58:32.704Z,4.30
2017-11-06T10:01:00.291Z,4.30
2017-11-06T10:03:27.863Z,4.20
2017-11-06T10:05:56.435Z,4.30
2017-11-06T10:08:23.986Z,4.40
2017-11-06T10:10:51.597Z,4.40
2017-11-06T10:13:20.009Z,4.30
2017-11-06T10:15:47.608Z,4.30
2017-11-06T10:18:15.183Z,4.30
2017-11-06T10:20:42.789Z,4.40
2017-11-06T10:23:11.253Z,4.20
2017-11-06T10:25:39.646Z,4.20
2017-11-06T10:28:08.026Z,4.30
2017-11-06T10:30:35.617Z,4.30
2017-11-06T10:33:03.998Z,4.40
2017-11-06T10:35:32.341Z,4.60
2017-11-06T10:38:00.013Z,4.60
2017-11-06T10:40:27.671Z,4.50
2017-11-06T10:42:55.315Z,4.50
2017-11-06T10:45:22.888Z,4.50
2017-11-06T10:47:50.713Z,4.60
2017-11-06T10:50:18.422Z,4.70
2017-11-06T10:52:46.016Z,4.80
2017-11-06T10:55:15.360Z,4.90
2017-11-06T10:57:43.593Z,5.00
2017-11-06T11:00:11.243Z,5.10
2017-11-06T11:02:39.288Z,5.00
2017-11-06T11:05:06.885Z,5.00
2017-11-06T11:07:34.480Z,5.00
2017-11-06T11:10:02.063Z,5.10
2017-11-06T11:12:29.650Z,5.20
2017-11-06T11:14:57.251Z,5.10
2017-11-06T11:17:24.864Z,5.10
2017-11-06T11:19:53.192Z,5.10
2017-11-06T11:22:21.811Z,5.10
2017-11-06T11:24:49.401Z,5.10
2017-11-06T11:27:17.022Z,4.90
2017-11-06T11:29:44.601Z,4.90
2017-11-06T11:32:12.161Z,4.90
2017-11-06T11:34:44.129Z,4.90
2017-11-06T11:37:11.710Z,4.90
2017-11-06T11:39:40.072Z,4.90
2017-11-06T11:42:07.665Z,4.90
2017-11-06T11:44:35.243Z,4.80
2017-11-06T11:47:02.829Z,4.80
2017-11-06T11:49:30.405Z,4.80
2017-11-06T11:51:58.971Z,4.80
2017-11-06T11:54:26.540Z,4.90
2017-11-06T11:56:54.136Z,4.90
2017-11-06T11:59:21.727Z,4.90
2017-11-06T12:01:49.309Z,4.90
2017-11-06T12:04:18.641Z,5.00
2017-11-06T12:06:46.224Z,5.00
2017-11-06T12:09:13.820Z,5.00
2017-11-06T12:11:42.157Z,5.00
2017-11-06T12:14:09.772Z,5.00
2017-11-06T12:16:37.371Z,5.10
2017-11-06T12:19:05.740Z,5.00
2017-11-06T12:21:33.339Z,5.00
2017-11-06T12:24:00.926Z,5.00
2017-11-06T12:26:28.562Z,4.90
2017-11-06T12:28:56.951Z,4.80
2017-11-06T12:31:24.545Z,4.70
2017-11-06T12:33:52.110Z,4.70
2017-11-06T12:36:19.712Z,4.70
2017-11-06T12:38:47.310Z,4.80
2017-11-06T12:41:14.860Z,4.90
2017-11-06T12:43:43.216Z,5.20
2017-11-06T12:46:10.857Z,5.20
2017-11-06T12:48:39.514Z,5.30
2017-11-06T12:51:07.083Z,5.40
2017-11-06T12:53:34.706Z,5.40
2017-11-06T12:56:02.710Z,5.40
2017-11-06T12:58:31.085Z,5.30
2017-11-06T13:00:58.661Z,5.30
2017-11-06T13:03:26.248Z,5.10
2017-11-06T13:05:53.829Z,5.10
2017-11-06T13:08:21.391Z,5.20
2017-11-06T13:10:49.030Z,5.30
2017-11-06T13:13:16.623Z,5.50
2017-11-06T13:15:44.324Z,5.50
2017-11-06T13:18:11.938Z,5.60
2017-11-06T13:20:39.520Z,5.70
2017-11-06T13:23:07.249Z,5.70
2017-11-06T13:25:35.593Z,5.50
2017-11-06T13:28:03.204Z,5.50
2017-11-06T13:30:30.807Z,5.30
2017-11-06T13:32:58.398Z,5.30
2017-11-06T13:35:25.994Z,5.20
2017-11-06T13:37:53.573Z,5.30
2017-11-06T13:40:21.134Z,5.20
2017-11-06T13:42:48.725Z,5.20
2017-11-06T13:45:16.318Z,5.20
2017-11-06T13:47:45.216Z,5.10
2017-11-06T13:50:12.762Z,5.10
2017-11-06T13:52:40.395Z,5.10
2017-11-06T13:55:08.040Z,5.20
2017-11-06T13:57:35.609Z,5.20
2017-11-06T14:00:03.206Z,5.20
2017-11-06T14:02:30.837Z,5.20
2017-11-06T14:04:59.176Z,5.20
2017-11-06T14:07:26.735Z,5.20
2017-11-06T14:09:54.315Z,5.20
2017-11-06T14:12:21.887Z,5.20
2017-11-06T14:14:49.692Z,5.10
2017-11-06T14:17:17.485Z,5.10
2017-11-06T14:19:45.349Z,5.10
2017-11-06T14:22:13.058Z,5.10
2017-11-06T14:24:41.670Z,5.10
2017-11-06T14:27:09.433Z,5.10
2017-11-06T14:29:38.096Z,5.10
2017-11-06T14:32:05.887Z,5.00
2017-11-06T14:34:33.641Z,5.00
2017-11-06T14:37:01.292Z,4.90
2017-11-06T14:39:29.022Z,4.90
2017-11-06T14:41:57.511Z,4.90
2017-11-06T14:44:25.283Z,4.90
2017-11-06T14:46:53.375Z,5.00
2017-11-06T14:49:21.375Z,5.00
2017-11-06T14:51:49.166Z,5.00
2017-11-06T14:54:16.815Z,5.00
2017-11-06T14:56:44.718Z,5.00
2017-11-06T14:59:12.632Z,5.00
2017-11-06T15:01:40.397Z,5.00
2017-11-06T15:04:08.126Z,5.00
2017-11-06T15:06:37.501Z,4.90
2017-11-06T15:09:05.278Z,4.90
2017-11-06T15:11:32.941Z,4.90
2017-11-06T15:14:00.519Z,4.80
2017-11-06T15:16:29.387Z,4.80
2017-11-06T15:18:57.026Z,4.80
2017-11-06T15:21:24.766Z,4.80
2017-11-06T15:23:53.158Z,4.80
2017-11-06T15:26:21.491Z,4.70
2017-11-06T15:28:50.186Z,4.70
2017-11-06T15:31:18.643Z,4.70
2017-11-06T15:33:46.249Z,4.70
2017-11-06T15:36:13.822Z,4.70
2017-11-06T15:38:41.413Z,4.60
2017-11-06T15:41:09.941Z,4.60
2017-11-06T15:43:37.557Z,4.60
2017-11-06T15:46:05.889Z,4.50
2017-11-06T15:48:33.475Z,4.50
2017-11-06T15:51:01.026Z,4.50
2017-11-06T15:53:29.762Z,4.60
2017-11-06T15:55:58.120Z,4.60
2017-11-06T15:58:25.731Z,4.60
2017-11-06T16:00:53.299Z,4.50
2017-11-06T16:03:20.907Z,4.50
2017-11-06T16:05:48.539Z,4.60
2017-11-06T16:08:16.116Z,4.60
2017-11-06T16:10:44.745Z,4.50
2017-11-06T16:13:13.298Z,4.50
2017-11-06T16:15:40.861Z,4.50
2017-11-06T16:18:08.447Z,4.50
2017-11-06T16:20:36.015Z,4.50
2017-11-06T16:23:03.669Z,4.40
2017-11-06T16:25:31.249Z,4.40
2017-11-06T16:27:58.847Z,4.40
2017-11-06T16:30:26.477Z,4.40
2017-11-06T16:32:54.079Z,4.50
2017-11-06T16:35:22.406Z,4.50
2017-11-06T16:37:49.985Z,4.50
2017-11-06T16:40:17.603Z,4.60
2017-11-06T16:42:45.202Z,4.50
2017-11-06T16:45:12.860Z,4.60
2017-11-06T16:47:40.443Z,4.50
2017-11-06T16:50:08.019Z,4.50
2017-11-06T16:52:35.634Z,4.60
2017-11-06T16:55:03.596Z,4.60
2017-11-06T16:57:31.967Z,4.50
2017-11-06T17:00:00.392Z,4.50
2017-11-06T17:02:28.020Z,4.40
2017-11-06T17:04:56.388Z,4.60
2017-11-06T17:07:23.963Z,4.60
2017-11-06T17:09:51.763Z,4.60
2017-11-06T17:12:19.404Z,4.60
2017-11-06T17:14:46.997Z,4.60
2017-11-06T17:17:14.589Z,4.50
2017-11-06T17:19:42.747Z,4.50
2017-11-06T17:22:10.994Z,4.50
2017-11-06T17:24:39.355Z,4.40
2017-11-06T17:27:06.939Z,4.40
2017-11-06T17:29:35.267Z,4.40
2017-11-06T17:32:02.928Z,4.40
2017-11-06T17:34:30.487Z,4.50
2017-11-06T17:36:58.070Z,4.50
2017-11-06T17:39:25.730Z,4.50
2017-11-06T17:41:53.340Z,4.50
2017-11-06T17:44:20.903Z,4.50
2017-11-06T17:46:48.483Z,4.50
2017-11-06T17:49:16.856Z,4.40
2017-11-06T17:51:44.452Z,4.40
2017-11-06T17:54:12.106Z,4.40
2017-11-06T17:56:39.771Z,4.30
2017-11-06T17:59:08.122Z,4.30
2017-11-06T18:01:35.740Z,4.30
2017-11-06T18:04:03.337Z,4.30
2017-11-06T18:06:30.943Z,4.30
2017-11-06T18:08:59.312Z,4.40
2017-11-06T18:11:27.676Z,4.40
2017-11-06T18:13:55.256Z,4.40
2017-11-06T18:16:22.911Z,4.40
2017-11-06T18:18:50.507Z,4.40
2017-11-06T18:21:18.197Z,4.40
2017-11-06T18:23:45.835Z,4.50
2017-11-06T18:26:17.625Z,4.50
2017-11-06T18:28:45.216Z,4.50
2017-11-06T18:31:12.812Z,4.50
2017-11-06T18:33:40.380Z,4.50
2017-11-06T18:36:07.946Z,4.50
2017-11-06T18:38:36.347Z,4.50
2017-11-06T18:41:03.961Z,4.50
2017-11-06T18:43:31.572Z,4.60
2017-11-06T18:45:59.107Z,4.60
2017-11-06T18:48:27.682Z,4.60
2017-11-06T18:50:55.244Z,4.60
2017-11-06T18:53:22.852Z,4.60
2017-11-06T18:55:54.299Z,4.50
2017-11-06T18:58:26.836Z,4.50
2017-11-06T19:00:56.009Z,4.50
2017-11-06T19:03:25.018Z,4.50
2017-11-06T19:05:55.620Z,4.50
2017-11-06T19:08:24.299Z,4.50
2017-11-06T19:11:05.902Z,4.50
2017-11-06T19:13:34.931Z,4.40
2017-11-06T19:16:02.669Z,4.40
2017-11-06T19:18:30.415Z,4.50
2017-11-06T19:21:00.109Z,4.50
2017-11-06T19:23:28.558Z,4.50
2017-11-06T19:25:56.179Z,4.40
2017-11-06T19:28:24.739Z,4.40
2017-11-06T19:30:52.345Z,4.40
2017-11-06T19:33:20.728Z,4.40
2017-11-06T19:35:48.573Z,4.40
2017-11-06T19:38:16.467Z,4.40
2017-11-06T19:40:44.748Z,4.40
2017-11-06T19:43:13.190Z,4.40
2017-11-06T19:45:40.832Z,4.40
2017-11-06T19:48:08.429Z,4.50
2017-11-06T19:50:36.124Z,4.40
2017-11-06T19:53:03.784Z,4.40
2017-11-06T19:55:31.370Z,4.40
2017-11-06T19:58:00.341Z,4.40
2017-11-06T20:00:29.077Z,4.40
2017-11-06T20:02:56.931Z,4.40
2017-11-06T20:05:25.897Z,4.40
2017-11-06T20:07:53.621Z,4.40
2017-11-06T20:10:21.241Z,4.40
2017-11-06T20:12:48.978Z,4.40
2017-11-06T20:15:16.578Z,4.40
2017-11-06T20:17:44.157Z,4.40
2017-11-06T20:20:12.989Z,4.40
2017-11-06T20:22:41.192Z,4.40
2017-11-06T20:25:08.790Z,4.40
2017-11-06T20:27:36.514Z,4.50
2017-11-06T20:30:05.202Z,4.50
2017-11-06T20:32:33.822Z,4.50
2017-11-06T20:35:01.961Z,4.40
2017-11-06T20:37:29.988Z,4.40
2017-11-06T20:39:57.570Z,4.50
2017-11-06T20:42:26.065Z,4.40
2017-11-06T20:44:54.453Z,4.40
2017-11-06T20:47:22.810Z,4.40
2017-11-06T20:49:50.533Z,4.40
2017-11-06T20:52:18.106Z,4.40
2017-11-06T20:54:45.692Z,4.40
2017-11-06T20:57:13.264Z,4.50
2017-11-06T20:59:40.858Z,4.50
2017-11-06T21:02:09.576Z,4.40
2017-11-06T21:04:37.126Z,4.40
2017-11-06T21:07:04.706Z,4.50
2017-11-06T21:09:32.250Z,4.40
2017-11-06T21:11:59.807Z,4.50
2017-11-06T21:14:27.397Z,4.50
2017-11-06T21:16:54.980Z,4.50
2017-11-06T21:19:22.565Z,4.50
2017-11-06T21:21:50.108Z,4.50
2017-11-06T21:24:17.700Z,4.40
2017-11-06T21:26:45.265Z,4.50
2017-11-06T21:29:12.869Z,4.40
2017-11-06T21:31:40.456Z,4.40
2017-11-06T21:34:08.050Z,4.40
2017-11-06T21:36:35.622Z,4.40
2017-11-06T21:39:03.199Z,4.40
2017-11-06T21:41:30.759Z,4.30
2017-11-06T21:43:58.316Z,4.40
2017-11-06T21:46:25.941Z,4.30
2017-11-06T21:48:53.569Z,4.40
2017-11-06T21:51:21.980Z,4.30
2017-11-06T21:53:49.543Z,4.30
2017-11-06T21:56:18.149Z,4.30
2017-11-06T21:58:45.709Z,4.30
2017-11-06T22:01:13.293Z,4.40
2017-11-06T22:03:40.893Z,4.40
2017-11-06T22:06:08.491Z,4.30
2017-11-06T22:08:36.069Z,4.30
2017-11-06T22:11:03.644Z,4.30
2017-11-06T22:13:31.234Z,4.30
2017-11-06T22:15:58.840Z,4.30
2017-11-06T22:18:27.370Z,4.30
2017-11-06T22:20:55.140Z,4.30
2017-11-06T22:23:22.902Z,4.30
2017-11-06T22:25:50.714Z,4.30
2017-11-06T22:28:19.997Z,4.30
2017-11-06T22:30:48.661Z,4.20
2017-11-06T22:33:16.277Z,4.30
2017-11-06T22:35:44.625Z,4.40
2017-11-06T22:38:12.186Z,4.30
2017-11-06T22:40:39.781Z,4.40
2017-11-06T22:43:07.352Z,4.40
2017-11-06T22:45:34.933Z,4.40
2017-11-06T22:48:03.262Z,4.40
2017-11-06T22:50:30.907Z,4.40
2017-11-06T22:52:58.574Z,4.40
2017-11-06T22:55:26.335Z,4.30
2017-11-06T22:57:54.098Z,4.40
2017-11-06T23:00:22.782Z,4.40
2017-11-06T23:02:50.603Z,4.40
2017-11-06T23:05:18.454Z,4.40
2017-11-06T23:07:46.045Z,4.40
2017-11-06T23:10:13.627Z,4.40
2017-11-06T23:12:41.238Z,4.30
2017-11-06T23:15:08.899Z,4.30
2017-11-06T23:17:36.499Z,4.40
2017-11-06T23:20:04.081Z,4.40
2017-11-06T23:22:31.664Z,4.40
2017-11-06T23:24:59.824Z,4.40
2017-11-06T23:27:27.420Z,4.40
2017-11-06T23:29:55.771Z,4.40
2017-11-06T23:32:23.337Z,4.40
2017-11-06T23:34:50.924Z,4.40
2017-11-06T23:37:18.507Z,4.30
2017-11-06T23:39:46.130Z,4.40
2017-11-06T23:42:13.712Z,4.40
2017-11-06T23:44:41.267Z,4.30
2017-11-06T23:47:08.875Z,4.30
2017-11-06T23:49:37.200Z,4.30
2017-11-06T23:52:04.773Z,4.30
2017-11-06T23:54:32.320Z,4.40
2017-11-06T23:56:59.889Z,4.30
2017-11-06T23:59:27.477Z,4.30
